Rome, New York
Current Conditions -  °F | °C
As of 2:53 PM on Thursday 27 Nov 2014 (Local Time) from KRME Reporting Station
Light Snow Light Snow  
Wind Chill: 24°   Ceiling: 1100
Heat Index: 29°   Visibility: 0.75mi
Dew Point: 27°   Wind: 5mph
Humidity: 92%   Direction: 240°WSW
Pressure: 30.03"   Gusts: NA
Location:  43.22°N, 75.45°W
Report Text: KRME 271953Z 24004KT 3/4SM -SN BR SCT007 BKN011 OVC024 M02/M03 A3003 RMK AO2 SLP173 P0002 T10171028 RVRNO
Loading
Personal Weather Stations






























Interactive Weather Map New forecast layout! Learn more

10-Day Weather Forecast

Advertisements
Track Severe Weather on mobile